Time;durP1;ratioP1;P1;durP2;ratioP2;P2;SDS_P1;SDS_P2;PMS_P1;PMS_P2;Temp;Humidity;BMP_temperature;BMP_pressure;BME280_temperature;BME280_humidity;BME280_pressure;Samples;Min_cycle;Max_cycle;Signal;HPM_P1;HPM_P2
2023/09/16 00:01:13;;;;;;;12.03;10.33;;;;;;;-148.15;100.00;61821.78;4951226;29;20479;-92
2023/09/16 00:03:38;;;;;;;12.60;10.37;;;;;;;-148.15;100.00;61821.78;4952539;29;20038;-91
2023/09/16 00:06:04;;;;;;;16.38;10.65;;;;;;;-148.15;100.00;61821.78;4951713;29;20031;-92
2023/09/16 00:08:32;;;;;;;13.37;9.83;;;;;;;-148.15;100.00;61821.78;4952424;29;20027;-91
2023/09/16 00:10:57;;;;;;;12.98;9.95;;;;;;;-148.15;100.00;61821.78;4950762;29;20035;-91
2023/09/16 00:13:23;;;;;;;14.15;10.00;;;;;;;-148.15;100.00;61821.78;4951771;29;20027;-91
2023/09/16 00:15:48;;;;;;;12.80;9.63;;;;;;;-148.15;100.00;61821.78;4950668;29;20027;-91
2023/09/16 00:18:17;;;;;;;13.30;9.70;;;;;;;-148.15;100.00;61821.78;4952148;29;20368;-91
2023/09/16 00:20:44;;;;;;;13.95;11.07;;;;;;;-148.15;100.00;61821.78;4950766;29;20038;-91
2023/09/16 00:23:10;;;;;;;14.18;9.93;;;;;;;-148.15;100.00;61821.78;4949245;29;20126;-92
2023/09/16 00:25:36;;;;;;;11.75;10.00;;;;;;;-148.15;100.00;61821.78;4950300;29;20398;-92
2023/09/16 00:28:01;;;;;;;13.90;9.10;;;;;;;-148.15;100.00;61821.78;4954707;29;20391;-92
2023/09/16 00:30:26;;;;;;;11.10;9.67;;;;;;;-148.15;100.00;61821.78;4937639;29;20035;-91
2023/09/16 00:32:52;;;;;;;12.53;10.10;;;;;;;-148.15;100.00;61821.78;4950567;29;20301;-92
2023/09/16 00:35:18;;;;;;;12.07;9.53;;;;;;;-148.15;100.00;61821.78;4954397;29;20252;-92
2023/09/16 00:37:43;;;;;;;11.27;9.50;;;;;;;-148.15;100.00;61821.78;4952262;29;20039;-91
2023/09/16 00:40:09;;;;;;;11.80;9.83;;;;;;;-148.15;100.00;61821.78;4952155;29;20019;-92
2023/09/16 00:42:38;;;;;;;14.25;9.25;;;;;;;-148.15;100.00;61821.78;4951145;29;20024;-91
2023/09/16 00:45:07;;;;;;;12.35;9.85;;;;;;;-148.15;100.00;61821.78;4951858;29;20649;-92
2023/09/16 00:47:35;;;;;;;14.65;8.98;;;;;;;-148.15;100.00;61821.78;4950447;29;20070;-90
2023/09/16 00:50:04;;;;;;;14.05;9.27;;;;;;;-148.15;100.00;61821.78;4952018;29;20030;-90
2023/09/16 00:52:30;;;;;;;12.93;9.23;;;;;;;-148.15;100.00;61821.78;4949677;28;20094;-90
2023/09/16 00:54:55;;;;;;;10.77;9.10;;;;;;;-148.15;100.00;61821.78;4953279;29;20303;-91
2023/09/16 00:57:21;;;;;;;12.48;9.45;;;;;;;-148.15;100.00;61821.78;4937547;29;20119;-91
2023/09/16 00:59:47;;;;;;;12.57;9.07;;;;;;;-148.15;100.00;61821.78;4955271;29;20034;-90
2023/09/16 01:02:15;;;;;;;13.13;9.02;;;;;;;-148.15;100.00;61821.78;4956664;28;20033;-90
2023/09/16 01:04:42;;;;;;;11.27;9.50;;;;;;;-148.15;100.00;61821.78;4954017;29;20632;-90
2023/09/16 01:07:07;;;;;;;11.07;8.83;;;;;;;-148.15;100.00;61821.78;4955476;29;20287;-91
2023/09/16 01:09:33;;;;;;;12.65;9.45;;;;;;;-148.15;100.00;61821.78;4954414;29;20047;-92
2023/09/16 01:11:59;;;;;;;13.18;9.95;;;;;;;-148.15;100.00;61821.78;4954710;29;20034;-92
2023/09/16 01:14:24;;;;;;;13.00;9.63;;;;;;;-148.15;100.00;61821.78;4956419;29;20027;-92
2023/09/16 01:17:33;;;;;;;11.38;9.98;;;;;;;-148.15;100.00;61821.78;4956236;29;20057;-92
2023/09/16 01:20:15;;;;;;;11.47;9.47;;;;;;;-148.15;100.00;61821.78;4954832;29;20110;-93
2023/09/16 01:22:45;;;;;;;13.88;9.57;;;;;;;-148.15;100.00;61821.78;4955409;29;20387;-93
2023/09/16 01:25:11;;;;;;;13.07;9.77;;;;;;;-148.15;100.00;61821.78;4955010;29;20406;-92
2023/09/16 01:27:37;;;;;;;14.85;10.15;;;;;;;-148.15;100.00;61821.78;4954980;29;20042;-92
2023/09/16 01:30:08;;;;;;;12.00;9.25;;;;;;;-148.15;100.00;61821.78;4954828;29;20032;-92
2023/09/16 01:32:49;;;;;;;12.95;9.55;;;;;;;-148.15;100.00;61821.78;4954664;29;20600;-91
2023/09/16 01:35:18;;;;;;;11.57;9.23;;;;;;;-148.15;100.00;61821.78;4937076;29;20028;-92
2023/09/16 01:37:46;;;;;;;11.50;9.50;;;;;;;-148.15;100.00;61821.78;4937113;29;20031;-92
2023/09/16 01:40:14;;;;;;;15.43;9.98;;;;;;;-148.15;100.00;61821.78;4956208;29;20128;-92
2023/09/16 01:42:40;;;;;;;15.03;9.70;;;;;;;-148.15;100.00;61821.78;4953615;29;20472;-92
2023/09/16 01:45:06;;;;;;;12.00;9.33;;;;;;;-148.15;100.00;61821.78;4954428;29;20345;-92
2023/09/16 01:47:32;;;;;;;13.07;9.18;;;;;;;-148.15;100.00;61821.78;4955630;29;20034;-92
2023/09/16 01:49:58;;;;;;;10.63;9.02;;;;;;;-148.15;100.00;61821.78;4957851;29;20387;-92
2023/09/16 01:52:23;;;;;;;12.37;9.90;;;;;;;-148.15;100.00;61821.78;4954050;29;20031;-92
2023/09/16 01:54:48;;;;;;;12.18;9.10;;;;;;;-148.15;100.00;61821.78;4937618;29;20055;-91
2023/09/16 01:57:14;;;;;;;14.10;9.57;;;;;;;-148.15;100.00;61821.78;4963090;29;20102;-92
2023/09/16 01:59:39;;;;;;;13.00;9.57;;;;;;;-148.15;100.00;61821.78;4953906;29;20170;-91
2023/09/16 02:02:04;;;;;;;14.10;9.40;;;;;;;-148.15;100.00;61821.78;4952881;29;20030;-92
2023/09/16 02:04:30;;;;;;;10.40;9.00;;;;;;;-148.15;100.00;61821.78;4949660;29;20027;-92
2023/09/16 02:06:55;;;;;;;12.17;9.67;;;;;;;-148.15;100.00;61821.78;4938325;29;20035;-92
2023/09/16 02:09:20;;;;;;;12.60;9.07;;;;;;;-148.15;100.00;61821.78;4936910;29;20028;-93
2023/09/16 02:11:46;;;;;;;11.43;9.17;;;;;;;-148.15;100.00;61821.78;4957898;29;20042;-92
2023/09/16 02:14:15;;;;;;;13.25;9.98;;;;;;;-148.15;100.00;61821.78;4964881;29;20475;-93
2023/09/16 02:16:40;;;;;;;12.50;9.50;;;;;;;-148.15;100.00;61821.78;4954989;29;20047;-92
2023/09/16 02:19:05;;;;;;;15.73;9.90;;;;;;;-148.15;100.00;61821.78;4954722;29;20845;-91
2023/09/16 02:21:31;;;;;;;15.10;10.10;;;;;;;-148.15;100.00;61821.78;4951235;29;20478;-92
2023/09/16 02:23:57;;;;;;;13.07;10.50;;;;;;;-148.15;100.00;61821.78;4946932;29;20027;-90
2023/09/16 02:26:23;;;;;;;13.73;10.63;;;;;;;-148.15;100.00;61821.78;4953238;29;20119;-91
2023/09/16 02:28:48;;;;;;;14.80;10.47;;;;;;;-148.15;100.00;61821.78;4948525;29;20127;-90
2023/09/16 02:31:15;;;;;;;15.60;10.10;;;;;;;-148.15;100.00;61821.78;4941265;29;20525;-90
2023/09/16 02:33:41;;;;;;;13.30;9.95;;;;;;;-148.15;100.00;61821.78;4953606;29;20081;-94
2023/09/16 02:36:06;;;;;;;14.90;10.63;;;;;;;-148.15;100.00;61821.78;4952345;29;20680;-93
2023/09/16 02:38:36;;;;;;;12.37;9.83;;;;;;;-148.15;100.00;61821.78;4954942;29;20310;-93
2023/09/16 02:41:04;;;;;;;16.73;10.52;;;;;;;-148.15;100.00;61821.78;4952880;29;20142;-93
2023/09/16 02:43:30;;;;;;;12.32;9.88;;;;;;;-148.15;100.00;61821.78;4954135;29;20031;-92
2023/09/16 02:45:56;;;;;;;13.35;10.05;;;;;;;-148.15;100.00;61821.78;4952182;29;20028;-91
2023/09/16 02:48:23;;;;;;;12.67;9.87;;;;;;;-148.15;100.00;61821.78;4952758;29;20031;-93
2023/09/16 02:50:49;;;;;;;10.43;9.35;;;;;;;-148.15;100.00;61821.78;4951422;29;20067;-90
2023/09/16 02:53:16;;;;;;;13.43;10.65;;;;;;;-148.15;100.00;61821.78;4946656;29;20027;-89
2023/09/16 02:55:41;;;;;;;14.60;11.18;;;;;;;-148.15;100.00;61821.78;4926345;29;20109;-89
2023/09/16 02:58:07;;;;;;;15.43;10.50;;;;;;;-148.15;100.00;61821.78;4952676;29;20526;-89
2023/09/16 03:00:33;;;;;;;12.57;10.60;;;;;;;-148.15;100.00;61821.78;4953560;29;20027;-89
2023/09/16 03:02:59;;;;;;;13.20;9.80;;;;;;;-148.15;100.00;61821.78;4953638;29;20086;-88
2023/09/16 03:05:25;;;;;;;13.73;10.90;;;;;;;-148.15;100.00;61821.78;4933725;29;20620;-89
2023/09/16 03:07:50;;;;;;;15.65;10.13;;;;;;;-148.15;100.00;61821.78;4953818;29;20023;-89
2023/09/16 03:10:16;;;;;;;15.43;9.60;;;;;;;-148.15;100.00;61821.78;4953944;29;20121;-91
2023/09/16 03:12:41;;;;;;;13.90;9.82;;;;;;;-148.15;100.00;61821.78;4936985;29;20031;-90
2023/09/16 03:15:07;;;;;;;12.23;9.07;;;;;;;-148.15;100.00;61821.78;4953856;29;20099;-89
2023/09/16 03:17:33;;;;;;;13.40;10.10;;;;;;;-148.15;100.00;61821.78;4953452;28;20031;-90
2023/09/16 03:19:58;;;;;;;13.70;10.03;;;;;;;-148.15;100.00;61821.78;4953415;29;20041;-90
2023/09/16 03:22:23;;;;;;;14.00;9.73;;;;;;;-148.15;100.00;61821.78;4953669;29;20027;-92
2023/09/16 03:24:50;;;;;;;15.40;10.80;;;;;;;-148.15;100.00;61821.78;4952495;29;20138;-90
2023/09/16 03:27:16;;;;;;;13.13;10.13;;;;;;;-148.15;100.00;61821.78;4953983;29;20127;-89
2023/09/16 03:29:42;;;;;;;12.90;10.02;;;;;;;-148.15;100.00;61821.78;4953478;29;20038;-90
2023/09/16 03:32:07;;;;;;;12.50;10.00;;;;;;;-148.15;100.00;61821.78;4936026;29;20019;-89
2023/09/16 03:34:32;;;;;;;14.67;10.93;;;;;;;-148.15;100.00;61821.78;4953596;29;20061;-89
2023/09/16 03:36:58;;;;;;;14.63;10.90;;;;;;;-148.15;100.00;61821.78;4954138;29;20038;-88
2023/09/16 03:39:24;;;;;;;12.57;9.88;;;;;;;-148.15;100.00;61821.78;4970309;29;20043;-89
2023/09/16 03:41:49;;;;;;;13.60;10.37;;;;;;;-148.15;100.00;61821.78;4969511;29;20402;-89
2023/09/16 03:44:15;;;;;;;15.53;10.03;;;;;;;-148.15;100.00;61821.78;4972503;29;20024;-89
2023/09/16 03:46:40;;;;;;;16.33;11.10;;;;;;;-148.15;100.00;61821.78;4973642;29;20031;-90
2023/09/16 03:49:06;;;;;;;12.95;10.43;;;;;;;-148.15;100.00;61821.78;4975915;28;20054;-89
2023/09/16 03:51:36;;;;;;;13.37;10.93;;;;;;;-148.15;100.00;61821.78;4957318;28;20486;-90
2023/09/16 03:54:04;;;;;;;16.25;11.20;;;;;;;-148.15;100.00;61821.78;4959290;29;20028;-89
2023/09/16 03:56:29;;;;;;;15.63;11.07;;;;;;;-148.15;100.00;61821.78;4954541;29;20035;-89
2023/09/16 03:58:55;;;;;;;14.63;11.17;;;;;;;-148.15;100.00;61821.78;4951483;29;20506;-90
2023/09/16 04:01:20;;;;;;;13.75;11.15;;;;;;;-148.15;100.00;61821.78;4952987;29;20039;-90
2023/09/16 04:03:46;;;;;;;15.27;10.80;;;;;;;-148.15;100.00;61821.78;4951617;29;20039;-90
2023/09/16 04:06:11;;;;;;;16.13;11.50;;;;;;;-148.15;100.00;61821.78;4953310;29;20027;-89
2023/09/16 04:08:36;;;;;;;14.77;11.07;;;;;;;-148.15;100.00;61821.78;4951886;29;20372;-89
2023/09/16 04:11:02;;;;;;;12.55;10.73;;;;;;;-148.15;100.00;61821.78;4952764;29;20794;-96
2023/09/16 04:13:27;;;;;;;17.43;10.97;;;;;;;-148.15;100.00;61821.78;4955367;29;20066;-95
2023/09/16 04:15:54;;;;;;;12.87;10.00;;;;;;;-148.15;100.00;61821.78;4955585;29;20015;-96
2023/09/16 04:18:20;;;;;;;15.65;10.82;;;;;;;-148.15;100.00;61821.78;4959348;29;20413;-96
2023/09/16 04:20:46;;;;;;;13.82;11.10;;;;;;;-148.15;100.00;61821.78;4956390;29;20055;-95
2023/09/16 04:23:12;;;;;;;14.80;10.33;;;;;;;-148.15;100.00;61821.78;4960947;28;20019;-96
2023/09/16 04:25:37;;;;;;;13.95;11.38;;;;;;;-148.15;100.00;61821.78;4961012;28;20030;-95
2023/09/16 04:28:03;;;;;;;14.97;11.33;;;;;;;-148.15;100.00;61821.78;4976160;28;20039;-96
2023/09/16 04:30:29;;;;;;;15.33;10.73;;;;;;;-148.15;100.00;61821.78;4960831;28;20050;-94
2023/09/16 04:32:54;;;;;;;17.57;11.57;;;;;;;-148.15;100.00;61821.78;4977399;28;20298;-95
2023/09/16 04:35:20;;;;;;;14.93;11.13;;;;;;;-148.15;100.00;61821.78;4975778;28;20046;-96
2023/09/16 04:37:45;;;;;;;15.57;11.83;;;;;;;-148.15;100.00;61821.78;4978159;28;20035;-96
2023/09/16 04:40:11;;;;;;;18.00;11.87;;;;;;;-148.15;100.00;61821.78;4963010;28;20043;-96
2023/09/16 04:42:38;;;;;;;21.63;11.80;;;;;;;-148.15;100.00;61821.78;4951620;29;20032;-96
2023/09/16 04:45:04;;;;;;;15.20;11.50;;;;;;;-148.15;100.00;61821.78;4955019;29;20018;-96
2023/09/16 04:47:30;;;;;;;18.40;11.95;;;;;;;-148.15;100.00;61821.78;4957424;29;20024;-96
2023/09/16 04:49:55;;;;;;;15.40;11.77;;;;;;;-148.15;100.00;61821.78;4971041;29;20137;-96
2023/09/16 04:52:22;;;;;;;15.23;11.57;;;;;;;-148.15;100.00;61821.78;4953686;29;20291;-96
2023/09/16 04:54:50;;;;;;;14.60;11.88;;;;;;;-148.15;100.00;61821.78;4988296;23;20074;-96
2023/09/16 04:57:49;;;;;;;16.65;11.95;;;;;;;-148.15;100.00;61821.78;4951144;29;20535;-96
2023/09/16 05:00:16;;;;;;;13.10;11.33;;;;;;;-148.15;100.00;61821.78;4956818;28;20026;-96
2023/09/16 05:02:41;;;;;;;16.20;11.30;;;;;;;-148.15;100.00;61821.78;4945332;28;20323;-96
2023/09/16 05:10:17;;;;;;;13.87;11.43;;;;;;;-148.15;100.00;61821.78;5747670;23;20336;-93
2023/09/16 05:12:42;;;;;;;18.70;12.07;;;;;;;-148.15;100.00;61821.78;4954344;28;20019;-95
2023/09/16 05:15:09;;;;;;;20.07;12.27;;;;;;;-148.15;100.00;61821.78;4939259;29;20028;-92
2023/09/16 05:17:36;;;;;;;21.40;12.68;;;;;;;-148.15;100.00;61821.78;4957180;28;20015;-91
2023/09/16 05:20:02;;;;;;;21.98;12.45;;;;;;;-148.15;100.00;61821.78;4956727;28;20020;-94
2023/09/16 05:22:28;;;;;;;16.00;12.13;;;;;;;-148.15;100.00;61821.78;4948760;29;20039;-92
2023/09/16 05:24:53;;;;;;;15.37;11.90;;;;;;;-148.15;100.00;61821.78;4935836;29;20059;-93
2023/09/16 05:27:18;;;;;;;18.93;11.83;;;;;;;-148.15;100.00;61821.78;4937153;29;20038;-92
2023/09/16 05:29:44;;;;;;;15.93;11.93;;;;;;;-148.15;100.00;61821.78;4937655;29;20047;-93
2023/09/16 05:32:09;;;;;;;17.23;12.00;;;;;;;-148.15;100.00;61821.78;4935016;29;20043;-93
2023/09/16 05:34:34;;;;;;;14.85;11.18;;;;;;;-148.15;100.00;61821.78;4946644;29;20060;-93
2023/09/16 05:37:00;;;;;;;16.20;12.13;;;;;;;-148.15;100.00;61821.78;4937920;29;20060;-86
2023/09/16 05:39:25;;;;;;;14.57;12.00;;;;;;;-148.15;100.00;61821.78;4930123;29;20027;-86
2023/09/16 05:41:50;;;;;;;16.13;12.07;;;;;;;-148.15;100.00;61821.78;4934760;29;20051;-86
2023/09/16 05:44:20;;;;;;;19.17;12.03;;;;;;;-148.15;100.00;61821.78;4936007;29;20403;-86
2023/09/16 05:46:45;;;;;;;16.40;12.27;;;;;;;-148.15;100.00;61821.78;4934568;29;20035;-86
2023/09/16 05:49:11;;;;;;;19.70;12.25;;;;;;;-148.15;100.00;61821.78;4935168;29;20031;-86
2023/09/16 05:51:36;;;;;;;15.60;11.63;;;;;;;-148.15;100.00;61821.78;4932754;29;20054;-86
2023/09/16 05:54:02;;;;;;;15.65;11.43;;;;;;;-148.15;100.00;61821.78;4933558;29;20118;-87
2023/09/16 05:56:27;;;;;;;17.43;12.33;;;;;;;-148.15;100.00;61821.78;4933666;29;20590;-85
2023/09/16 05:58:53;;;;;;;15.50;12.40;;;;;;;-148.15;100.00;61821.78;4930057;29;20118;-86
2023/09/16 06:01:19;;;;;;;14.40;11.53;;;;;;;-148.15;100.00;61821.78;4933563;29;20332;-84
2023/09/16 06:03:44;;;;;;;16.15;12.48;;;;;;;-148.15;100.00;61821.78;4931608;29;20035;-85
2023/09/16 06:06:11;;;;;;;16.07;11.20;;;;;;;-148.15;100.00;61821.78;4914886;29;20019;-86
2023/09/16 06:08:36;;;;;;;16.50;11.80;;;;;;;-148.15;100.00;61821.78;4936886;29;20035;-86
2023/09/16 06:11:02;;;;;;;16.53;12.50;;;;;;;-148.15;100.00;61821.78;4932150;29;20677;-87
2023/09/16 06:13:27;;;;;;;17.13;12.48;;;;;;;-148.15;100.00;61821.78;4935866;29;20091;-86
2023/09/16 06:15:53;;;;;;;18.50;13.00;;;;;;;-148.15;100.00;61821.78;4935185;29;20016;-87
2023/09/16 06:18:18;;;;;;;15.50;12.83;;;;;;;-148.15;100.00;61821.78;4936173;29;20038;-88
2023/09/16 06:20:43;;;;;;;18.38;12.75;;;;;;;-148.15;100.00;61821.78;4933665;29;20542;-87
2023/09/16 06:23:09;;;;;;;18.00;12.97;;;;;;;-148.15;100.00;61821.78;4935793;29;20083;-88
2023/09/16 06:25:35;;;;;;;19.40;14.33;;;;;;;-148.15;100.00;61821.78;4936161;29;20051;-88
2023/09/16 06:28:00;;;;;;;18.10;13.52;;;;;;;-148.15;100.00;61821.78;4932825;29;20035;-85
2023/09/16 06:30:25;;;;;;;19.20;14.23;;;;;;;-148.15;100.00;61821.78;4931665;29;20170;-87
2023/09/16 06:32:54;;;;;;;21.53;14.93;;;;;;;-148.15;100.00;61821.78;4935082;29;20036;-85
2023/09/16 06:35:20;;;;;;;24.45;18.30;;;;;;;-148.15;100.00;61821.78;4928558;29;20034;-86
2023/09/16 06:37:45;;;;;;;21.80;16.77;;;;;;;-148.15;100.00;61821.78;4926042;29;20388;-86
2023/09/16 06:40:11;;;;;;;23.63;16.53;;;;;;;-148.15;100.00;61821.78;4954156;29;20034;-85
2023/09/16 06:42:36;;;;;;;25.40;17.85;;;;;;;-148.15;100.00;61821.78;4951512;29;20034;-86
2023/09/16 06:45:01;;;;;;;27.90;18.33;;;;;;;-148.15;100.00;61821.78;4938578;29;20038;-85
2023/09/16 06:47:27;;;;;;;30.73;19.50;;;;;;;-148.15;100.00;61821.78;4945580;29;20364;-85
2023/09/16 06:49:54;;;;;;;31.00;20.03;;;;;;;-148.15;100.00;61821.78;4920560;29;20062;-85
2023/09/16 06:52:22;;;;;;;31.05;19.33;;;;;;;-148.15;100.00;61821.78;4914602;29;20028;-85
2023/09/16 06:54:48;;;;;;;28.30;18.58;;;;;;;-148.15;100.00;61821.78;4933001;29;20031;-86
2023/09/16 06:57:14;;;;;;;24.65;17.40;;;;;;;-148.15;100.00;61821.78;4934975;29;20083;-85
2023/09/16 06:59:39;;;;;;;27.67;18.67;;;;;;;-148.15;100.00;61821.78;4934141;29;20042;-86
2023/09/16 07:02:05;;;;;;;26.27;19.15;;;;;;;-148.15;100.00;61821.78;4932391;29;20115;-85
2023/09/16 07:04:30;;;;;;;27.77;19.50;;;;;;;-148.15;100.00;61821.78;4933734;29;20039;-85
2023/09/16 07:06:56;;;;;;;26.00;19.07;;;;;;;-148.15;100.00;61821.78;4934513;29;20383;-86
2023/09/16 07:09:21;;;;;;;26.33;19.48;;;;;;;-148.15;100.00;61821.78;4935504;29;20050;-85
2023/09/16 07:11:46;;;;;;;27.60;18.37;;;;;;;-148.15;100.00;61821.78;4934330;29;20042;-85
2023/09/16 07:14:11;;;;;;;25.13;18.77;;;;;;;-148.15;100.00;61821.78;4942238;29;20054;-85
2023/09/16 07:16:39;;;;;;;24.90;19.63;;;;;;;-148.15;100.00;61821.78;4936508;29;20582;-85
2023/09/16 07:19:04;;;;;;;25.52;16.60;;;;;;;-148.15;100.00;61821.78;4929482;29;21154;-85
2023/09/16 07:21:31;;;;;;;27.43;17.50;;;;;;;-148.15;100.00;61821.78;4932730;29;20036;-85
2023/09/16 07:24:00;;;;;;;26.65;19.38;;;;;;;-148.15;100.00;61821.78;4931844;29;20038;-87
2023/09/16 07:26:27;;;;;;;28.83;18.10;;;;;;;-148.15;100.00;61821.78;4935753;29;20491;-84
2023/09/16 07:28:52;;;;;;;24.52;17.70;;;;;;;-148.15;100.00;61821.78;4921565;29;20039;-82
2023/09/16 07:31:18;;;;;;;27.27;17.70;;;;;;;-148.15;100.00;61821.78;4944790;29;20491;-82
2023/09/16 07:33:43;;;;;;;34.43;18.67;;;;;;;-148.15;100.00;61821.78;4949693;29;20082;-83
2023/09/16 07:36:08;;;;;;;28.40;18.70;;;;;;;-148.15;100.00;61821.78;4954873;29;20038;-83
2023/09/16 07:38:34;;;;;;;25.70;18.63;;;;;;;-148.15;100.00;61821.78;4955818;29;20046;-84
2023/09/16 07:40:59;;;;;;;24.03;17.30;;;;;;;-148.15;100.00;61821.78;4940402;29;20400;-86
2023/09/16 07:43:24;;;;;;;27.15;18.80;;;;;;;-148.15;100.00;61821.78;4922938;29;20102;-83
2023/09/16 07:45:50;;;;;;;25.67;17.90;;;;;;;-148.15;100.00;61821.78;4932369;29;20035;-84
2023/09/16 07:48:17;;;;;;;28.90;18.27;;;;;;;-148.15;100.00;61821.78;4951075;29;20030;-85
2023/09/16 07:50:42;;;;;;;28.23;17.40;;;;;;;-148.15;100.00;61821.78;4945776;29;20114;-86
2023/09/16 07:53:07;;;;;;;24.03;18.53;;;;;;;-148.15;100.00;61821.78;4933595;29;20114;-86
2023/09/16 07:55:33;;;;;;;26.00;17.10;;;;;;;-148.15;100.00;61821.78;4938064;29;20038;-84
2023/09/16 07:57:58;;;;;;;28.07;17.53;;;;;;;-148.15;100.00;61821.78;4930234;29;20127;-84
2023/09/16 08:00:23;;;;;;;30.42;16.90;;;;;;;-148.15;100.00;61821.78;4931990;29;20041;-85
2023/09/16 08:02:49;;;;;;;24.70;16.83;;;;;;;-148.15;100.00;61821.78;4934552;28;20475;-85
2023/09/16 08:05:14;;;;;;;23.77;16.33;;;;;;;-148.15;100.00;61821.78;4934744;29;20110;-86
2023/09/16 08:07:39;;;;;;;20.70;16.50;;;;;;;-148.15;100.00;61821.78;4933088;29;20122;-85
2023/09/16 08:10:05;;;;;;;25.00;16.87;;;;;;;-148.15;100.00;61821.78;4934213;29;20031;-86
2023/09/16 08:12:30;;;;;;;19.73;15.70;;;;;;;-148.15;100.00;61821.78;4930571;29;20298;-85
2023/09/16 08:14:56;;;;;;;23.27;16.30;;;;;;;-148.15;100.00;61821.78;4936195;29;20484;-83
2023/09/16 08:17:21;;;;;;;21.70;16.13;;;;;;;-148.15;100.00;61821.78;4939264;29;20038;-86
2023/09/16 08:19:46;;;;;;;20.20;15.87;;;;;;;-148.15;100.00;61821.78;4935303;29;20031;-85
2023/09/16 08:22:12;;;;;;;22.05;15.60;;;;;;;-148.15;100.00;61821.78;4933613;29;20027;-87
2023/09/16 08:24:37;;;;;;;19.67;15.30;;;;;;;-148.15;100.00;61821.78;4941140;29;20082;-89
2023/09/16 08:27:03;;;;;;;23.47;15.57;;;;;;;-148.15;100.00;61821.78;4943807;29;20123;-86
2023/09/16 08:29:28;;;;;;;23.53;15.00;;;;;;;-148.15;100.00;61821.78;4939160;29;20589;-88
2023/09/16 08:31:54;;;;;;;21.45;14.40;;;;;;;-148.15;100.00;61821.78;4936704;29;20044;-89
2023/09/16 08:34:19;;;;;;;17.30;14.47;;;;;;;-148.15;100.00;61821.78;4947270;29;20119;-86
2023/09/16 08:36:44;;;;;;;24.63;14.53;;;;;;;-148.15;100.00;61821.78;4933433;29;20028;-87
2023/09/16 08:39:10;;;;;;;18.07;13.80;;;;;;;-148.15;100.00;61821.78;4931903;29;20032;-83
2023/09/16 08:41:49;;;;;;;18.60;13.90;;;;;;;-148.15;100.00;61821.78;4933743;29;20534;-87
2023/09/16 08:44:17;;;;;;;19.13;14.30;;;;;;;-148.15;100.00;61821.78;4935628;29;20487;-85
2023/09/16 08:46:50;;;;;;;22.65;12.93;;;;;;;-148.15;100.00;61821.78;4932906;29;20039;-87
2023/09/16 08:49:18;;;;;;;21.45;14.25;;;;;;;-148.15;100.00;61821.78;4934774;29;20051;-86
2023/09/16 08:51:47;;;;;;;16.75;13.70;;;;;;;-148.15;100.00;61821.78;4925454;29;20079;-86
2023/09/16 08:54:15;;;;;;;16.83;13.33;;;;;;;-148.15;100.00;61821.78;4934052;29;20035;-86
2023/09/16 08:56:44;;;;;;;16.23;13.07;;;;;;;-148.15;100.00;61821.78;4929812;29;20307;-85
2023/09/16 08:59:09;;;;;;;17.30;13.00;;;;;;;-148.15;100.00;61821.78;4921131;29;20415;-84
2023/09/16 09:01:35;;;;;;;19.25;13.18;;;;;;;-148.15;100.00;61821.78;4931262;29;20031;-84
2023/09/16 09:04:01;;;;;;;17.10;13.73;;;;;;;-148.15;100.00;61821.78;4915641;29;20099;-85
2023/09/16 09:06:28;;;;;;;16.63;12.43;;;;;;;-148.15;100.00;61821.78;4932593;29;20026;-85
2023/09/16 09:08:53;;;;;;;16.58;12.63;;;;;;;-148.15;100.00;61821.78;4931728;29;20031;-89
2023/09/16 09:11:19;;;;;;;16.67;12.67;;;;;;;-148.15;100.00;61821.78;4931245;29;20443;-86
2023/09/16 09:13:45;;;;;;;15.90;12.25;;;;;;;-148.15;100.00;61821.78;4932204;29;20055;-86
2023/09/16 09:16:15;;;;;;;15.38;11.48;;;;;;;-148.15;100.00;61821.78;4954827;29;20035;-86
2023/09/16 09:18:41;;;;;;;14.40;11.00;;;;;;;-148.15;100.00;61821.78;4950461;29;20111;-86
2023/09/16 09:21:07;;;;;;;15.57;11.30;;;;;;;-148.15;100.00;61821.78;4935679;29;20374;-86
2023/09/16 09:23:32;;;;;;;13.13;11.25;;;;;;;-148.15;100.00;61821.78;4936275;29;20111;-86
2023/09/16 09:25:57;;;;;;;13.27;10.80;;;;;;;-148.15;100.00;61821.78;4935799;29;20123;-87
2023/09/16 09:28:23;;;;;;;15.17;10.90;;;;;;;-148.15;100.00;61821.78;4933237;29;20028;-87
2023/09/16 09:30:49;;;;;;;13.33;11.10;;;;;;;-148.15;100.00;61821.78;4920265;29;20079;-89
2023/09/16 09:33:18;;;;;;;15.45;10.23;;;;;;;-148.15;100.00;61821.78;4917986;29;20142;-88
2023/09/16 09:35:44;;;;;;;12.80;10.38;;;;;;;-148.15;100.00;61821.78;4931452;29;20036;-86
2023/09/16 09:38:09;;;;;;;14.57;10.77;;;;;;;-148.15;100.00;61821.78;4935835;29;20456;-86
2023/09/16 09:40:34;;;;;;;14.82;10.93;;;;;;;-148.15;100.00;61821.78;4936083;29;20112;-85
2023/09/16 09:43:00;;;;;;;16.93;10.97;;;;;;;-148.15;100.00;61821.78;4930861;29;20103;-85
2023/09/16 09:45:27;;;;;;;12.77;10.83;;;;;;;-148.15;100.00;61821.78;4934908;29;20042;-85
2023/09/16 09:47:53;;;;;;;15.38;10.35;;;;;;;-148.15;100.00;61821.78;4938178;29;20023;-85
2023/09/16 09:50:20;;;;;;;15.63;10.77;;;;;;;-148.15;100.00;61821.78;4918070;29;20035;-86
2023/09/16 09:52:53;;;;;;;14.23;10.70;;;;;;;-148.15;100.00;61821.78;4935101;29;20068;-86
2023/09/16 09:55:27;;;;;;;16.90;11.33;;;;;;;-148.15;100.00;61821.78;4937140;29;20280;-85
2023/09/16 09:57:53;;;;;;;15.70;11.25;;;;;;;-148.15;100.00;61821.78;4931980;29;20035;-85
2023/09/16 10:00:20;;;;;;;14.80;10.73;;;;;;;-148.15;100.00;61821.78;4933474;29;20028;-86
2023/09/16 10:02:47;;;;;;;13.75;10.35;;;;;;;-148.15;100.00;61821.78;4934734;29;20043;-86
2023/09/16 10:05:19;;;;;;;14.27;10.23;;;;;;;-148.15;100.00;61821.78;4934738;29;20051;-86
2023/09/16 10:07:46;;;;;;;13.43;9.90;;;;;;;-148.15;100.00;61821.78;4929797;29;20026;-86
2023/09/16 10:10:22;;;;;;;13.18;10.27;;;;;;;-148.15;100.00;61821.78;4932642;29;20114;-86
2023/09/16 10:12:53;;;;;;;13.07;10.18;;;;;;;-148.15;100.00;61821.78;4919604;29;20038;-86
2023/09/16 10:15:31;;;;;;;14.30;10.00;;;;;;;-148.15;100.00;61821.78;4923754;29;20024;-86
2023/09/16 10:17:57;;;;;;;16.67;9.85;;;;;;;-148.15;100.00;61821.78;4947039;29;20032;-86
2023/09/16 10:20:22;;;;;;;12.73;9.73;;;;;;;-148.15;100.00;61821.78;4933589;29;20043;-86
2023/09/16 10:22:48;;;;;;;13.00;10.02;;;;;;;-148.15;100.00;61821.78;4934885;29;20024;-86
2023/09/16 10:25:16;;;;;;;13.80;9.73;;;;;;;-148.15;100.00;61821.78;4927819;29;20039;-87
2023/09/16 10:27:54;;;;;;;16.57;9.77;;;;;;;-148.15;100.00;61821.78;4934862;29;20555;-86
2023/09/16 10:30:20;;;;;;;12.20;10.07;;;;;;;-148.15;100.00;61821.78;4933545;29;20315;-87
2023/09/16 10:32:46;;;;;;;13.93;9.45;;;;;;;-148.15;100.00;61821.78;4934328;29;20031;-86
2023/09/16 10:35:13;;;;;;;11.70;9.93;;;;;;;-148.15;100.00;61821.78;4932584;29;20032;-86
2023/09/16 10:37:41;;;;;;;14.65;10.15;;;;;;;-148.15;100.00;61821.78;4931926;29;20040;-87
2023/09/16 10:40:08;;;;;;;12.70;10.37;;;;;;;-148.15;100.00;61821.78;4932724;29;20040;-86
2023/09/16 10:42:36;;;;;;;12.90;9.37;;;;;;;-148.15;100.00;61821.78;4932692;29;20795;-86
2023/09/16 10:45:03;;;;;;;11.52;9.60;;;;;;;-148.15;100.00;61821.78;4934461;29;20483;-86
2023/09/16 10:47:29;;;;;;;14.48;10.07;;;;;;;-148.15;100.00;61821.78;4933676;29;20023;-86
2023/09/16 10:49:54;;;;;;;13.18;10.43;;;;;;;-148.15;100.00;61821.78;4933933;29;20171;-86
2023/09/16 10:52:28;;;;;;;14.07;10.05;;;;;;;-148.15;100.00;61821.78;4935148;29;20063;-86
2023/09/16 10:55:05;;;;;;;14.47;10.30;;;;;;;-148.15;100.00;61821.78;4932938;29;20038;-87
2023/09/16 10:57:39;;;;;;;12.83;10.10;;;;;;;-148.15;100.00;61821.78;4933844;29;20307;-88
2023/09/16 11:00:10;;;;;;;12.18;9.90;;;;;;;-148.15;100.00;61821.78;4934539;29;20119;-87